sensor_id;sensor_type;location;lat;lon;timestamp;P1;durP1;ratioP1;P2;durP2;ratioP2
45905;SDS011;31619;49.008;12.106;2022-10-17T00:00:42;5.43;;;4.93;;
45905;SDS011;31619;49.008;12.106;2022-10-17T00:03:08;5.63;;;5.00;;
45905;SDS011;31619;49.008;12.106;2022-10-17T00:05:38;6.00;;;5.35;;
45905;SDS011;31619;49.008;12.106;2022-10-17T00:08:07;6.65;;;4.82;;
45905;SDS011;31619;49.008;12.106;2022-10-17T00:10:34;6.35;;;5.28;;
45905;SDS011;31619;49.008;12.106;2022-10-17T00:13:00;9.13;;;5.53;;
45905;SDS011;31619;49.008;12.106;2022-10-17T00:15:25;6.30;;;4.95;;
45905;SDS011;31619;49.008;12.106;2022-10-17T00:17:51;5.28;;;4.85;;
45905;SDS011;31619;49.008;12.106;2022-10-17T00:20:17;6.72;;;4.60;;
45905;SDS011;31619;49.008;12.106;2022-10-17T00:22:42;6.25;;;5.38;;
45905;SDS011;31619;49.008;12.106;2022-10-17T00:25:08;6.00;;;4.78;;
45905;SDS011;31619;49.008;12.106;2022-10-17T00:27:35;7.43;;;5.28;;
45905;SDS011;31619;49.008;12.106;2022-10-17T00:30:05;5.32;;;4.13;;
45905;SDS011;31619;49.008;12.106;2022-10-17T00:32:33;5.38;;;4.88;;
45905;SDS011;31619;49.008;12.106;2022-10-17T00:34:59;7.40;;;4.47;;
45905;SDS011;31619;49.008;12.106;2022-10-17T00:37:25;5.68;;;5.15;;
45905;SDS011;31619;49.008;12.106;2022-10-17T00:39:51;4.97;;;4.57;;
45905;SDS011;31619;49.008;12.106;2022-10-17T00:42:17;5.63;;;4.90;;
45905;SDS011;31619;49.008;12.106;2022-10-17T00:47:16;5.13;;;4.63;;
45905;SDS011;31619;49.008;12.106;2022-10-17T00:49:44;5.20;;;4.70;;
45905;SDS011;31619;49.008;12.106;2022-10-17T00:52:12;7.22;;;4.65;;
45905;SDS011;31619;49.008;12.106;2022-10-17T00:54:43;6.45;;;5.15;;
45905;SDS011;31619;49.008;12.106;2022-10-17T00:57:12;5.97;;;4.78;;
45905;SDS011;31619;49.008;12.106;2022-10-17T00:59:38;5.35;;;4.72;;
45905;SDS011;31619;49.008;12.106;2022-10-17T01:04:35;5.72;;;4.53;;
45905;SDS011;31619;49.008;12.106;2022-10-17T01:07:02;4.80;;;4.43;;
45905;SDS011;31619;49.008;12.106;2022-10-17T01:09:28;4.88;;;4.47;;
45905;SDS011;31619;49.008;12.106;2022-10-17T01:17:38;6.60;;;5.25;;
45905;SDS011;31619;49.008;12.106;2022-10-17T01:25:57;4.60;;;4.20;;
45905;SDS011;31619;49.008;12.106;2022-10-17T01:28:32;5.32;;;4.47;;
45905;SDS011;31619;49.008;12.106;2022-10-17T01:31:24;5.10;;;4.63;;
45905;SDS011;31619;49.008;12.106;2022-10-17T01:34:02;5.65;;;4.97;;
45905;SDS011;31619;49.008;12.106;2022-10-17T01:36:33;4.93;;;4.50;;
45905;SDS011;31619;49.008;12.106;2022-10-17T01:39:11;5.38;;;4.88;;
45905;SDS011;31619;49.008;12.106;2022-10-17T01:42:07;6.57;;;4.90;;
45905;SDS011;31619;49.008;12.106;2022-10-17T01:47:25;5.40;;;4.47;;
45905;SDS011;31619;49.008;12.106;2022-10-17T01:49:54;6.32;;;4.78;;
45905;SDS011;31619;49.008;12.106;2022-10-17T01:52:25;6.05;;;5.32;;
45905;SDS011;31619;49.008;12.106;2022-10-17T01:58:02;5.32;;;4.82;;
45905;SDS011;31619;49.008;12.106;2022-10-17T02:00:32;5.57;;;4.97;;
45905;SDS011;31619;49.008;12.106;2022-10-17T02:06:02;5.78;;;5.28;;
45905;SDS011;31619;49.008;12.106;2022-10-17T02:08:42;5.88;;;5.25;;
45905;SDS011;31619;49.008;12.106;2022-10-17T02:11:16;6.28;;;5.05;;
45905;SDS011;31619;49.008;12.106;2022-10-17T02:14:12;7.38;;;4.90;;
45905;SDS011;31619;49.008;12.106;2022-10-17T02:22:50;6.47;;;5.55;;
45905;SDS011;31619;49.008;12.106;2022-10-17T02:25:28;7.80;;;5.60;;
45905;SDS011;31619;49.008;12.106;2022-10-17T02:28:07;6.00;;;5.40;;
45905;SDS011;31619;49.008;12.106;2022-10-17T02:31:06;5.43;;;4.90;;
45905;SDS011;31619;49.008;12.106;2022-10-17T02:33:44;5.90;;;5.30;;
45905;SDS011;31619;49.008;12.106;2022-10-17T02:36:23;5.68;;;5.18;;
45905;SDS011;31619;49.008;12.106;2022-10-17T02:38:53;6.28;;;4.97;;
45905;SDS011;31619;49.008;12.106;2022-10-17T02:41:20;6.03;;;5.35;;
45905;SDS011;31619;49.008;12.106;2022-10-17T02:43:48;5.95;;;5.15;;
45905;SDS011;31619;49.008;12.106;2022-10-17T02:46:15;6.45;;;5.32;;
45905;SDS011;31619;49.008;12.106;2022-10-17T02:48:46;5.80;;;5.30;;
45905;SDS011;31619;49.008;12.106;2022-10-17T02:51:20;5.25;;;4.75;;
45905;SDS011;31619;49.008;12.106;2022-10-17T02:56:29;5.72;;;5.32;;
45905;SDS011;31619;49.008;12.106;2022-10-17T02:58:57;6.10;;;5.50;;
45905;SDS011;31619;49.008;12.106;2022-10-17T03:01:24;5.85;;;5.40;;
45905;SDS011;31619;49.008;12.106;2022-10-17T03:03:50;6.47;;;5.18;;
45905;SDS011;31619;49.008;12.106;2022-10-17T03:06:27;6.18;;;5.55;;
45905;SDS011;31619;49.008;12.106;2022-10-17T03:08:53;5.95;;;5.32;;
45905;SDS011;31619;49.008;12.106;2022-10-17T03:11:19;9.60;;;5.65;;
45905;SDS011;31619;49.008;12.106;2022-10-17T03:13:44;6.20;;;5.60;;
45905;SDS011;31619;49.008;12.106;2022-10-17T03:16:10;6.57;;;5.75;;
45905;SDS011;31619;49.008;12.106;2022-10-17T03:18:36;7.45;;;6.05;;
45905;SDS011;31619;49.008;12.106;2022-10-17T03:21:01;6.57;;;5.10;;
45905;SDS011;31619;49.008;12.106;2022-10-17T03:23:27;5.53;;;5.00;;
45905;SDS011;31619;49.008;12.106;2022-10-17T03:25:53;6.10;;;5.38;;
45905;SDS011;31619;49.008;12.106;2022-10-17T03:28:18;5.22;;;4.80;;
45905;SDS011;31619;49.008;12.106;2022-10-17T03:30:44;8.48;;;5.00;;
45905;SDS011;31619;49.008;12.106;2022-10-17T03:33:09;5.88;;;5.40;;
45905;SDS011;31619;49.008;12.106;2022-10-17T03:35:37;5.75;;;5.25;;
45905;SDS011;31619;49.008;12.106;2022-10-17T03:38:04;5.85;;;5.20;;
45905;SDS011;31619;49.008;12.106;2022-10-17T03:40:29;8.15;;;5.80;;
45905;SDS011;31619;49.008;12.106;2022-10-17T03:42:55;6.05;;;4.63;;
45905;SDS011;31619;49.008;12.106;2022-10-17T03:45:21;5.70;;;4.95;;
45905;SDS011;31619;49.008;12.106;2022-10-17T03:47:46;4.57;;;4.28;;
45905;SDS011;31619;49.008;12.106;2022-10-17T03:50:12;6.22;;;5.30;;
45905;SDS011;31619;49.008;12.106;2022-10-17T03:52:38;6.22;;;5.63;;
45905;SDS011;31619;49.008;12.106;2022-10-17T03:55:03;5.93;;;5.32;;
45905;SDS011;31619;49.008;12.106;2022-10-17T03:57:29;5.72;;;5.22;;
45905;SDS011;31619;49.008;12.106;2022-10-17T03:59:55;8.55;;;5.38;;
45905;SDS011;31619;49.008;12.106;2022-10-17T04:02:21;7.18;;;5.00;;
45905;SDS011;31619;49.008;12.106;2022-10-17T04:04:46;5.72;;;5.15;;
45905;SDS011;31619;49.008;12.106;2022-10-17T04:07:12;5.18;;;4.78;;
45905;SDS011;31619;49.008;12.106;2022-10-17T04:09:37;5.63;;;4.97;;
45905;SDS011;31619;49.008;12.106;2022-10-17T04:12:03;11.65;;;5.53;;
45905;SDS011;31619;49.008;12.106;2022-10-17T04:14:29;5.40;;;4.90;;
45905;SDS011;31619;49.008;12.106;2022-10-17T04:16:55;5.30;;;4.80;;
45905;SDS011;31619;49.008;12.106;2022-10-17T04:19:20;5.93;;;4.68;;
45905;SDS011;31619;49.008;12.106;2022-10-17T04:21:46;5.13;;;4.72;;
45905;SDS011;31619;49.008;12.106;2022-10-17T04:24:12;6.78;;;4.88;;
45905;SDS011;31619;49.008;12.106;2022-10-17T04:26:38;7.63;;;4.88;;
45905;SDS011;31619;49.008;12.106;2022-10-17T04:29:04;6.18;;;4.88;;
45905;SDS011;31619;49.008;12.106;2022-10-17T04:31:30;4.60;;;4.20;;
45905;SDS011;31619;49.008;12.106;2022-10-17T04:33:55;8.57;;;4.72;;
45905;SDS011;31619;49.008;12.106;2022-10-17T04:36:21;5.75;;;4.40;;
45905;SDS011;31619;49.008;12.106;2022-10-17T04:38:47;5.80;;;5.13;;
45905;SDS011;31619;49.008;12.106;2022-10-17T04:41:14;5.00;;;4.57;;
45905;SDS011;31619;49.008;12.106;2022-10-17T04:43:41;5.38;;;4.68;;
45905;SDS011;31619;49.008;12.106;2022-10-17T04:46:11;4.75;;;4.07;;
45905;SDS011;31619;49.008;12.106;2022-10-17T04:48:39;5.03;;;4.60;;
45905;SDS011;31619;49.008;12.106;2022-10-17T04:51:06;4.70;;;4.32;;
45905;SDS011;31619;49.008;12.106;2022-10-17T04:53:35;7.20;;;5.22;;
45905;SDS011;31619;49.008;12.106;2022-10-17T04:56:09;8.13;;;5.18;;
45905;SDS011;31619;49.008;12.106;2022-10-17T04:58:40;5.45;;;5.05;;
45905;SDS011;31619;49.008;12.106;2022-10-17T05:01:07;5.10;;;4.80;;
45905;SDS011;31619;49.008;12.106;2022-10-17T05:03:34;7.00;;;4.93;;
45905;SDS011;31619;49.008;12.106;2022-10-17T05:06:08;6.07;;;5.50;;
45905;SDS011;31619;49.008;12.106;2022-10-17T05:08:35;7.15;;;6.55;;
45905;SDS011;31619;49.008;12.106;2022-10-17T05:11:01;6.90;;;6.30;;
45905;SDS011;31619;49.008;12.106;2022-10-17T05:13:27;6.88;;;6.28;;
45905;SDS011;31619;49.008;12.106;2022-10-17T05:15:56;8.88;;;5.80;;
45905;SDS011;31619;49.008;12.106;2022-10-17T05:18:23;6.95;;;6.03;;
45905;SDS011;31619;49.008;12.106;2022-10-17T05:20:58;7.60;;;5.32;;
45905;SDS011;31619;49.008;12.106;2022-10-17T05:23:23;5.57;;;5.07;;
45905;SDS011;31619;49.008;12.106;2022-10-17T05:25:55;6.18;;;4.75;;
45905;SDS011;31619;49.008;12.106;2022-10-17T05:28:21;5.10;;;4.70;;
45905;SDS011;31619;49.008;12.106;2022-10-17T05:30:47;5.85;;;5.25;;
45905;SDS011;31619;49.008;12.106;2022-10-17T05:33:13;9.07;;;6.00;;
45905;SDS011;31619;49.008;12.106;2022-10-17T05:35:38;6.10;;;5.25;;
45905;SDS011;31619;49.008;12.106;2022-10-17T05:38:04;6.68;;;5.93;;
45905;SDS011;31619;49.008;12.106;2022-10-17T05:40:30;6.43;;;5.82;;
45905;SDS011;31619;49.008;12.106;2022-10-17T05:42:56;5.75;;;5.25;;
45905;SDS011;31619;49.008;12.106;2022-10-17T05:45:21;7.28;;;6.57;;
45905;SDS011;31619;49.008;12.106;2022-10-17T05:47:47;16.25;;;5.60;;
45905;SDS011;31619;49.008;12.106;2022-10-17T05:50:13;7.95;;;6.18;;
45905;SDS011;31619;49.008;12.106;2022-10-17T05:52:38;9.80;;;6.80;;
45905;SDS011;31619;49.008;12.106;2022-10-17T05:55:04;8.10;;;6.47;;
45905;SDS011;31619;49.008;12.106;2022-10-17T05:57:31;8.77;;;6.50;;
45905;SDS011;31619;49.008;12.106;2022-10-17T05:59:57;8.77;;;6.60;;
45905;SDS011;31619;49.008;12.106;2022-10-17T06:02:22;9.70;;;6.63;;
45905;SDS011;31619;49.008;12.106;2022-10-17T06:04:48;7.70;;;6.18;;
45905;SDS011;31619;49.008;12.106;2022-10-17T06:07:14;6.45;;;5.72;;
45905;SDS011;31619;49.008;12.106;2022-10-17T06:09:40;9.63;;;8.38;;
45905;SDS011;31619;49.008;12.106;2022-10-17T06:12:06;8.68;;;6.60;;
45905;SDS011;31619;49.008;12.106;2022-10-17T06:14:32;7.18;;;5.43;;
45905;SDS011;31619;49.008;12.106;2022-10-17T06:16:58;8.48;;;5.57;;
45905;SDS011;31619;49.008;12.106;2022-10-17T06:19:23;6.57;;;5.93;;
45905;SDS011;31619;49.008;12.106;2022-10-17T06:21:50;10.60;;;6.82;;
45905;SDS011;31619;49.008;12.106;2022-10-17T06:24:15;10.55;;;8.02;;
45905;SDS011;31619;49.008;12.106;2022-10-17T06:26:41;10.15;;;6.50;;
45905;SDS011;31619;49.008;12.106;2022-10-17T06:29:07;16.52;;;6.65;;
45905;SDS011;31619;49.008;12.106;2022-10-17T06:31:32;15.38;;;7.00;;
45905;SDS011;31619;49.008;12.106;2022-10-17T06:33:58;6.90;;;6.07;;
45905;SDS011;31619;49.008;12.106;2022-10-17T06:36:24;12.35;;;6.15;;
45905;SDS011;31619;49.008;12.106;2022-10-17T06:38:50;6.15;;;5.55;;
45905;SDS011;31619;49.008;12.106;2022-10-17T06:41:16;9.88;;;6.35;;
45905;SDS011;31619;49.008;12.106;2022-10-17T06:43:44;8.80;;;5.60;;
45905;SDS011;31619;49.008;12.106;2022-10-17T06:46:11;9.43;;;6.03;;
45905;SDS011;31619;49.008;12.106;2022-10-17T06:48:38;7.22;;;5.05;;
45905;SDS011;31619;49.008;12.106;2022-10-17T06:51:15;5.32;;;4.93;;
45905;SDS011;31619;49.008;12.106;2022-10-17T06:53:58;9.80;;;4.60;;
45905;SDS011;31619;49.008;12.106;2022-10-17T06:56:24;5.28;;;4.40;;
45905;SDS011;31619;49.008;12.106;2022-10-17T06:58:56;6.57;;;5.47;;
45905;SDS011;31619;49.008;12.106;2022-10-17T07:01:21;13.02;;;5.60;;
45905;SDS011;31619;49.008;12.106;2022-10-17T07:03:47;5.95;;;4.65;;
45905;SDS011;31619;49.008;12.106;2022-10-17T07:06:16;7.57;;;5.43;;
45905;SDS011;31619;49.008;12.106;2022-10-17T07:08:48;4.78;;;4.35;;
45905;SDS011;31619;49.008;12.106;2022-10-17T07:11:33;14.98;;;5.43;;
45905;SDS011;31619;49.008;12.106;2022-10-17T07:14:04;16.50;;;6.47;;
45905;SDS011;31619;49.008;12.106;2022-10-17T07:16:30;14.20;;;6.45;;
45905;SDS011;31619;49.008;12.106;2022-10-17T07:18:56;14.27;;;6.22;;
45905;SDS011;31619;49.008;12.106;2022-10-17T07:21:21;6.57;;;5.90;;
45905;SDS011;31619;49.008;12.106;2022-10-17T07:23:47;6.68;;;6.03;;
45905;SDS011;31619;49.008;12.106;2022-10-17T07:26:14;10.70;;;5.88;;
45905;SDS011;31619;49.008;12.106;2022-10-17T07:28:41;6.40;;;5.75;;
45905;SDS011;31619;49.008;12.106;2022-10-17T07:31:09;7.72;;;6.38;;
45905;SDS011;31619;49.008;12.106;2022-10-17T07:33:36;8.13;;;6.28;;
45905;SDS011;31619;49.008;12.106;2022-10-17T07:36:03;11.10;;;6.07;;
45905;SDS011;31619;49.008;12.106;2022-10-17T07:38:29;17.92;;;6.53;;
45905;SDS011;31619;49.008;12.106;2022-10-17T07:40:56;12.88;;;6.18;;
45905;SDS011;31619;49.008;12.106;2022-10-17T07:43:23;9.13;;;6.28;;
45905;SDS011;31619;49.008;12.106;2022-10-17T07:45:50;6.18;;;5.57;;
45905;SDS011;31619;49.008;12.106;2022-10-17T07:48:16;9.98;;;5.95;;
45905;SDS011;31619;49.008;12.106;2022-10-17T07:50:42;7.70;;;6.45;;
45905;SDS011;31619;49.008;12.106;2022-10-17T07:53:11;9.02;;;6.68;;
45905;SDS011;31619;49.008;12.106;2022-10-17T07:55:37;9.85;;;6.15;;
45905;SDS011;31619;49.008;12.106;2022-10-17T07:58:04;7.32;;;6.63;;
45905;SDS011;31619;49.008;12.106;2022-10-17T08:00:30;10.48;;;7.50;;
45905;SDS011;31619;49.008;12.106;2022-10-17T08:02:56;10.70;;;8.20;;
45905;SDS011;31619;49.008;12.106;2022-10-17T08:05:21;8.52;;;7.55;;
45905;SDS011;31619;49.008;12.106;2022-10-17T08:07:47;12.98;;;9.25;;
45905;SDS011;31619;49.008;12.106;2022-10-17T08:10:13;11.77;;;8.95;;
45905;SDS011;31619;49.008;12.106;2022-10-17T08:12:40;18.38;;;13.15;;
45905;SDS011;31619;49.008;12.106;2022-10-17T08:15:06;17.60;;;12.13;;
45905;SDS011;31619;49.008;12.106;2022-10-17T08:17:33;17.77;;;14.18;;
45905;SDS011;31619;49.008;12.106;2022-10-17T08:19:59;15.65;;;12.85;;
45905;SDS011;31619;49.008;12.106;2022-10-17T08:22:25;16.33;;;13.23;;
45905;SDS011;31619;49.008;12.106;2022-10-17T08:24:51;18.23;;;14.60;;
45905;SDS011;31619;49.008;12.106;2022-10-17T08:27:16;18.92;;;14.45;;
45905;SDS011;31619;49.008;12.106;2022-10-17T08:29:47;17.67;;;15.32;;
45905;SDS011;31619;49.008;12.106;2022-10-17T08:32:17;20.95;;;15.45;;
45905;SDS011;31619;49.008;12.106;2022-10-17T08:34:46;18.80;;;14.60;;
45905;SDS011;31619;49.008;12.106;2022-10-17T08:37:12;18.40;;;14.68;;
45905;SDS011;31619;49.008;12.106;2022-10-17T08:39:41;19.60;;;14.13;;
45905;SDS011;31619;49.008;12.106;2022-10-17T08:47:57;16.10;;;13.73;;
45905;SDS011;31619;49.008;12.106;2022-10-17T08:50:42;15.20;;;12.95;;
45905;SDS011;31619;49.008;12.106;2022-10-17T08:55:57;14.52;;;12.70;;
45905;SDS011;31619;49.008;12.106;2022-10-17T08:58:28;13.48;;;12.18;;
45905;SDS011;31619;49.008;12.106;2022-10-17T09:03:44;12.75;;;11.45;;
45905;SDS011;31619;49.008;12.106;2022-10-17T09:22:50;11.93;;;10.82;;
45905;SDS011;31619;49.008;12.106;2022-10-17T09:25:25;12.15;;;11.00;;
45905;SDS011;31619;49.008;12.106;2022-10-17T09:27:52;12.00;;;10.82;;
45905;SDS011;31619;49.008;12.106;2022-10-17T09:30:43;10.93;;;9.95;;
45905;SDS011;31619;49.008;12.106;2022-10-17T09:33:16;11.02;;;10.02;;
45905;SDS011;31619;49.008;12.106;2022-10-17T09:35:43;11.43;;;10.02;;
45905;SDS011;31619;49.008;12.106;2022-10-17T09:38:13;10.57;;;9.57;;
45905;SDS011;31619;49.008;12.106;2022-10-17T09:40:45;10.65;;;9.25;;
45905;SDS011;31619;49.008;12.106;2022-10-17T09:43:24;10.88;;;9.77;;
45905;SDS011;31619;49.008;12.106;2022-10-17T09:48:58;10.55;;;9.63;;
45905;SDS011;31619;49.008;12.106;2022-10-17T09:51:37;9.98;;;9.02;;
45905;SDS011;31619;49.008;12.106;2022-10-17T09:54:04;10.65;;;9.68;;
45905;SDS011;31619;49.008;12.106;2022-10-17T09:59:43;11.00;;;10.00;;
45905;SDS011;31619;49.008;12.106;2022-10-17T10:02:24;11.95;;;10.68;;
45905;SDS011;31619;49.008;12.106;2022-10-17T10:04:52;10.65;;;9.63;;
45905;SDS011;31619;49.008;12.106;2022-10-17T10:07:25;10.98;;;10.07;;
45905;SDS011;31619;49.008;12.106;2022-10-17T10:09:53;10.55;;;9.52;;
45905;SDS011;31619;49.008;12.106;2022-10-17T10:12:22;13.00;;;11.77;;
45905;SDS011;31619;49.008;12.106;2022-10-17T10:14:52;12.60;;;11.27;;
45905;SDS011;31619;49.008;12.106;2022-10-17T10:19:59;11.95;;;10.75;;
45905;SDS011;31619;49.008;12.106;2022-10-17T10:22:25;12.85;;;9.18;;
45905;SDS011;31619;49.008;12.106;2022-10-17T10:25:11;10.45;;;9.43;;
45905;SDS011;31619;49.008;12.106;2022-10-17T10:27:40;10.40;;;9.40;;
45905;SDS011;31619;49.008;12.106;2022-10-17T10:30:18;10.65;;;9.70;;
45905;SDS011;31619;49.008;12.106;2022-10-17T10:32:48;10.38;;;9.38;;
45905;SDS011;31619;49.008;12.106;2022-10-17T10:35:29;10.40;;;9.57;;
45905;SDS011;31619;49.008;12.106;2022-10-17T10:37:57;11.30;;;10.30;;
45905;SDS011;31619;49.008;12.106;2022-10-17T10:40:30;12.55;;;11.45;;
45905;SDS011;31619;49.008;12.106;2022-10-17T10:42:59;11.40;;;10.20;;
45905;SDS011;31619;49.008;12.106;2022-10-17T10:45:43;12.07;;;10.88;;
45905;SDS011;31619;49.008;12.106;2022-10-17T10:50:42;10.20;;;9.30;;
45905;SDS011;31619;49.008;12.106;2022-10-17T10:53:18;9.63;;;8.82;;
45905;SDS011;31619;49.008;12.106;2022-10-17T11:01:02;9.20;;;8.50;;
45905;SDS011;31619;49.008;12.106;2022-10-17T11:03:32;9.57;;;8.77;;
45905;SDS011;31619;49.008;12.106;2022-10-17T11:06:12;10.15;;;8.18;;
45905;SDS011;31619;49.008;12.106;2022-10-17T11:08:44;8.93;;;8.13;;
45905;SDS011;31619;49.008;12.106;2022-10-17T11:11:16;8.43;;;7.65;;
45905;SDS011;31619;49.008;12.106;2022-10-17T11:14:01;9.73;;;8.73;;
45905;SDS011;31619;49.008;12.106;2022-10-17T11:16:42;9.35;;;8.27;;
45905;SDS011;31619;49.008;12.106;2022-10-17T11:19:41;9.10;;;8.48;;
45905;SDS011;31619;49.008;12.106;2022-10-17T11:22:47;8.80;;;8.10;;
45905;SDS011;31619;49.008;12.106;2022-10-17T11:25:30;9.55;;;8.68;;
45905;SDS011;31619;49.008;12.106;2022-10-17T11:28:09;8.27;;;7.57;;
45905;SDS011;31619;49.008;12.106;2022-10-17T11:30:40;10.38;;;7.15;;
45905;SDS011;31619;49.008;12.106;2022-10-17T11:33:14;7.88;;;7.13;;
45905;SDS011;31619;49.008;12.106;2022-10-17T11:35:47;8.63;;;7.95;;
45905;SDS011;31619;49.008;12.106;2022-10-17T11:40:58;8.07;;;7.43;;
45905;SDS011;31619;49.008;12.106;2022-10-17T11:46:23;8.48;;;7.32;;
45905;SDS011;31619;49.008;12.106;2022-10-17T11:51:47;8.00;;;7.30;;
45905;SDS011;31619;49.008;12.106;2022-10-17T11:54:34;8.32;;;6.68;;
45905;SDS011;31619;49.008;12.106;2022-10-17T12:05:16;7.90;;;7.18;;
45905;SDS011;31619;49.008;12.106;2022-10-17T12:07:54;7.82;;;7.13;;
45905;SDS011;31619;49.008;12.106;2022-10-17T12:13:16;6.97;;;6.47;;
45905;SDS011;31619;49.008;12.106;2022-10-17T12:15:51;7.80;;;7.00;;
45905;SDS011;31619;49.008;12.106;2022-10-17T12:18:18;7.60;;;6.90;;
45905;SDS011;31619;49.008;12.106;2022-10-17T12:20:54;6.90;;;6.30;;
45905;SDS011;31619;49.008;12.106;2022-10-17T12:23:24;6.30;;;5.78;;
45905;SDS011;31619;49.008;12.106;2022-10-17T12:26:01;7.07;;;6.47;;
45905;SDS011;31619;49.008;12.106;2022-10-17T12:31:08;7.72;;;7.03;;
45905;SDS011;31619;49.008;12.106;2022-10-17T12:38:42;7.85;;;6.30;;
45905;SDS011;31619;49.008;12.106;2022-10-17T12:41:08;9.13;;;6.85;;
45905;SDS011;31619;49.008;12.106;2022-10-17T12:43:35;7.22;;;6.63;;
45905;SDS011;31619;49.008;12.106;2022-10-17T12:49:18;7.25;;;6.55;;
45905;SDS011;31619;49.008;12.106;2022-10-17T12:54:45;7.20;;;6.43;;
45905;SDS011;31619;49.008;12.106;2022-10-17T12:57:18;8.43;;;7.43;;
45905;SDS011;31619;49.008;12.106;2022-10-17T12:59:48;8.13;;;7.43;;
45905;SDS011;31619;49.008;12.106;2022-10-17T13:02:18;6.35;;;5.85;;
45905;SDS011;31619;49.008;12.106;2022-10-17T13:04:46;7.47;;;6.78;;
45905;SDS011;31619;49.008;12.106;2022-10-17T13:07:17;6.47;;;5.78;;
45905;SDS011;31619;49.008;12.106;2022-10-17T13:09:45;6.30;;;5.80;;
45905;SDS011;31619;49.008;12.106;2022-10-17T13:12:17;7.90;;;7.30;;
45905;SDS011;31619;49.008;12.106;2022-10-17T13:14:47;7.32;;;6.63;;
45905;SDS011;31619;49.008;12.106;2022-10-17T13:17:26;7.40;;;6.57;;
45905;SDS011;31619;49.008;12.106;2022-10-17T13:19:53;7.03;;;6.43;;
45905;SDS011;31619;49.008;12.106;2022-10-17T13:22:20;7.60;;;6.90;;
45905;SDS011;31619;49.008;12.106;2022-10-17T13:24:51;7.97;;;7.18;;
45905;SDS011;31619;49.008;12.106;2022-10-17T13:27:30;8.10;;;7.40;;
45905;SDS011;31619;49.008;12.106;2022-10-17T13:29:58;6.80;;;6.20;;
45905;SDS011;31619;49.008;12.106;2022-10-17T13:32:26;7.55;;;6.88;;
45905;SDS011;31619;49.008;12.106;2022-10-17T13:35:06;8.52;;;6.90;;
45905;SDS011;31619;49.008;12.106;2022-10-17T13:37:41;7.15;;;6.55;;
45905;SDS011;31619;49.008;12.106;2022-10-17T13:40:19;7.95;;;6.70;;
45905;SDS011;31619;49.008;12.106;2022-10-17T13:42:50;6.43;;;5.85;;
45905;SDS011;31619;49.008;12.106;2022-10-17T13:47:52;7.25;;;6.65;;
45905;SDS011;31619;49.008;12.106;2022-10-17T13:50:19;7.13;;;6.43;;
45905;SDS011;31619;49.008;12.106;2022-10-17T13:53:04;6.38;;;5.78;;
45905;SDS011;31619;49.008;12.106;2022-10-17T13:55:31;6.80;;;6.20;;
45905;SDS011;31619;49.008;12.106;2022-10-17T13:58:07;7.05;;;6.20;;
45905;SDS011;31619;49.008;12.106;2022-10-17T14:00:41;6.40;;;5.80;;
45905;SDS011;31619;49.008;12.106;2022-10-17T14:03:07;7.57;;;6.57;;
45905;SDS011;31619;49.008;12.106;2022-10-17T14:05:33;7.75;;;6.78;;
45905;SDS011;31619;49.008;12.106;2022-10-17T14:08:02;6.80;;;6.10;;
45905;SDS011;31619;49.008;12.106;2022-10-17T14:10:38;7.38;;;6.68;;
45905;SDS011;31619;49.008;12.106;2022-10-17T14:13:05;7.50;;;6.90;;
45905;SDS011;31619;49.008;12.106;2022-10-17T14:15:33;7.05;;;6.32;;
45905;SDS011;31619;49.008;12.106;2022-10-17T14:18:03;8.63;;;6.85;;
45905;SDS011;31619;49.008;12.106;2022-10-17T14:20:30;6.85;;;6.05;;
45905;SDS011;31619;49.008;12.106;2022-10-17T14:22:57;6.00;;;5.47;;
45905;SDS011;31619;49.008;12.106;2022-10-17T14:28:00;6.43;;;5.82;;
45905;SDS011;31619;49.008;12.106;2022-10-17T14:30:38;7.82;;;6.47;;
45905;SDS011;31619;49.008;12.106;2022-10-17T14:33:08;6.18;;;5.78;;
45905;SDS011;31619;49.008;12.106;2022-10-17T14:35:39;6.97;;;6.38;;
45905;SDS011;31619;49.008;12.106;2022-10-17T14:38:12;6.45;;;5.97;;
45905;SDS011;31619;49.008;12.106;2022-10-17T14:40:47;6.43;;;5.75;;
45905;SDS011;31619;49.008;12.106;2022-10-17T14:43:19;6.13;;;5.65;;
45905;SDS011;31619;49.008;12.106;2022-10-17T14:45:47;7.88;;;6.05;;
45905;SDS011;31619;49.008;12.106;2022-10-17T14:48:17;7.45;;;6.03;;
45905;SDS011;31619;49.008;12.106;2022-10-17T14:53:35;7.10;;;6.60;;
45905;SDS011;31619;49.008;12.106;2022-10-17T14:56:03;8.93;;;6.68;;
45905;SDS011;31619;49.008;12.106;2022-10-17T14:58:44;6.90;;;6.20;;
45905;SDS011;31619;49.008;12.106;2022-10-17T15:01:10;6.85;;;6.22;;
45905;SDS011;31619;49.008;12.106;2022-10-17T15:03:36;6.97;;;6.22;;
45905;SDS011;31619;49.008;12.106;2022-10-17T15:06:35;6.40;;;5.80;;
45905;SDS011;31619;49.008;12.106;2022-10-17T15:08:56;6.25;;;5.75;;
45905;SDS011;31619;49.008;12.106;2022-10-17T15:11:22;6.32;;;5.80;;
45905;SDS011;31619;49.008;12.106;2022-10-17T15:13:48;6.60;;;6.05;;
45905;SDS011;31619;49.008;12.106;2022-10-17T15:16:17;6.22;;;5.72;;
45905;SDS011;31619;49.008;12.106;2022-10-17T15:18:45;5.50;;;5.10;;
45905;SDS011;31619;49.008;12.106;2022-10-17T15:21:14;7.07;;;6.47;;
45905;SDS011;31619;49.008;12.106;2022-10-17T15:23:41;7.70;;;6.22;;
45905;SDS011;31619;49.008;12.106;2022-10-17T15:26:14;7.35;;;6.28;;
45905;SDS011;31619;49.008;12.106;2022-10-17T15:28:42;11.30;;;6.75;;
45905;SDS011;31619;49.008;12.106;2022-10-17T15:31:11;13.98;;;6.97;;
45905;SDS011;31619;49.008;12.106;2022-10-17T15:33:38;8.60;;;6.53;;
45905;SDS011;31619;49.008;12.106;2022-10-17T15:36:04;10.80;;;6.22;;
45905;SDS011;31619;49.008;12.106;2022-10-17T15:38:57;11.02;;;6.72;;
45905;SDS011;31619;49.008;12.106;2022-10-17T15:41:24;8.18;;;6.70;;
45905;SDS011;31619;49.008;12.106;2022-10-17T15:43:51;7.90;;;6.80;;
45905;SDS011;31619;49.008;12.106;2022-10-17T15:46:18;6.80;;;6.20;;
45905;SDS011;31619;49.008;12.106;2022-10-17T15:48:49;7.00;;;6.32;;
45905;SDS011;31619;49.008;12.106;2022-10-17T15:51:15;6.93;;;6.28;;
45905;SDS011;31619;49.008;12.106;2022-10-17T15:53:41;8.00;;;7.13;;
45905;SDS011;31619;49.008;12.106;2022-10-17T15:56:07;8.40;;;7.30;;
45905;SDS011;31619;49.008;12.106;2022-10-17T15:58:44;7.93;;;6.90;;
45905;SDS011;31619;49.008;12.106;2022-10-17T16:01:15;7.78;;;6.90;;
45905;SDS011;31619;49.008;12.106;2022-10-17T16:03:47;9.82;;;7.53;;
45905;SDS011;31619;49.008;12.106;2022-10-17T16:06:14;10.30;;;7.38;;
45905;SDS011;31619;49.008;12.106;2022-10-17T16:08:41;8.93;;;7.28;;
45905;SDS011;31619;49.008;12.106;2022-10-17T16:11:08;8.73;;;7.30;;
45905;SDS011;31619;49.008;12.106;2022-10-17T16:13:49;9.93;;;8.43;;
45905;SDS011;31619;49.008;12.106;2022-10-17T16:16:16;8.75;;;7.95;;
45905;SDS011;31619;49.008;12.106;2022-10-17T16:18:42;8.85;;;7.93;;
45905;SDS011;31619;49.008;12.106;2022-10-17T16:21:10;8.90;;;7.75;;
45905;SDS011;31619;49.008;12.106;2022-10-17T16:23:39;8.05;;;7.25;;
45905;SDS011;31619;49.008;12.106;2022-10-17T16:26:06;8.50;;;7.80;;
45905;SDS011;31619;49.008;12.106;2022-10-17T16:28:32;9.45;;;8.55;;
45905;SDS011;31619;49.008;12.106;2022-10-17T16:30:57;8.93;;;8.13;;
45905;SDS011;31619;49.008;12.106;2022-10-17T16:33:23;9.27;;;8.35;;
45905;SDS011;31619;49.008;12.106;2022-10-17T16:35:49;10.25;;;8.60;;
45905;SDS011;31619;49.008;12.106;2022-10-17T16:38:14;9.30;;;8.40;;
45905;SDS011;31619;49.008;12.106;2022-10-17T16:40:40;9.90;;;8.20;;
45905;SDS011;31619;49.008;12.106;2022-10-17T16:43:06;9.73;;;8.40;;
45905;SDS011;31619;49.008;12.106;2022-10-17T16:45:34;9.65;;;8.75;;